Time;durP1;ratioP1;P1;durP2;ratioP2;P2;SDS_P1;SDS_P2;PMS_P1;PMS_P2;Temp;Humidity;BMP_temperature;BMP_pressure;BME280_temperature;BME280_humidity;BME280_pressure;Samples;Min_cycle;Max_cycle;Signal;HPM_P1;HPM_P2
2024/03/11 00:00:27;;;;;;;36.70;9.00;;;;;;;5.62;34.59;101031.20;107910;1256;72984;-64
2024/03/11 00:02:55;;;;;;;46.50;10.70;;;;;;;5.65;34.63;101032.92;107938;1257;60408;-67
2024/03/11 00:05:23;;;;;;;19.80;5.40;;;;;;;5.65;34.53;101033.10;107929;1256;59371;-67
2024/03/11 00:07:51;;;;;;;13.30;4.70;;;;;;;5.52;34.85;101036.44;107911;1257;72671;-65
2024/03/11 00:10:18;;;;;;;11.30;4.40;;;;;;;5.55;34.82;101039.21;107920;1256;69979;-68
2024/03/11 00:12:51;;;;;;;11.80;4.90;;;;;;;5.48;35.26;101035.40;107945;1257;71824;-67
2024/03/11 00:15:23;;;;;;;13.00;4.60;;;;;;;5.38;35.27;101036.98;107877;1257;61852;-64
2024/03/11 00:17:51;;;;;;;11.50;4.80;;;;;;;5.21;35.65;101037.16;107899;1257;60232;-65
2024/03/11 00:20:22;;;;;;;11.80;5.10;;;;;;;5.16;35.80;101041.86;107918;1257;71981;-66
2024/03/11 00:22:50;;;;;;;;;;;;;;;5.06;36.02;101043.79;107992;1257;70215;-67
2024/03/11 00:25:17;;;;;;;16.60;6.30;;;;;;;5.06;36.01;101045.17;107858;1257;71382;-66
2024/03/11 00:27:45;;;;;;;24.10;7.10;;;;;;;5.05;36.05;101049.19;107892;1260;60644;-67
2024/03/11 00:30:13;;;;;;;74.20;19.00;;;;;;;5.08;35.95;101052.31;107915;1255;60280;-67
2024/03/11 00:32:44;;;;;;;38.50;9.90;;;;;;;5.24;35.76;101055.45;107836;1257;71790;-67
2024/03/11 00:35:14;;;;;;;37.00;9.30;;;;;;;5.06;36.12;101061.01;107967;1254;70016;-66
2024/03/11 00:37:43;;;;;;;26.00;7.20;;;;;;;4.97;36.46;101063.97;108078;1259;72746;-66
2024/03/11 00:40:11;;;;;;;13.20;4.90;;;;;;;5.01;36.35;101062.06;107972;1254;60509;-67
2024/03/11 00:42:39;;;;;;;17.90;6.50;;;;;;;5.16;36.17;101065.20;107962;1254;60305;-68
2024/03/11 00:45:10;;;;;;;19.30;6.30;;;;;;;5.11;36.33;101066.41;107899;1254;72978;-67
2024/03/11 00:47:41;;;;;;;13.10;5.00;;;;;;;5.18;36.23;101068.69;107905;1254;70291;-67
2024/03/11 00:50:12;;;;;;;14.30;5.20;;;;;;;5.08;36.34;101069.55;107922;1254;71463;-65
2024/03/11 00:52:42;;;;;;;13.60;5.90;;;;;;;5.24;36.28;101073.04;107958;1257;60508;-65
2024/03/11 00:55:10;;;;;;;16.30;5.90;;;;;;;5.12;36.31;101074.24;107935;1254;60364;-66
2024/03/11 00:57:45;;;;;;;14.00;5.10;;;;;;;5.13;36.50;101080.52;107846;1254;73825;-67
2024/03/11 01:00:14;;;;;;;13.90;6.00;;;;;;;5.10;36.69;101081.39;107948;1254;70126;-68
2024/03/11 01:02:41;;;;;;;10.10;4.60;;;;;;;5.07;36.52;101085.22;108010;1257;72546;-67
2024/03/11 01:05:10;;;;;;;12.70;4.70;;;;;;;4.90;36.83;101085.17;107882;1254;61685;-65
2024/03/11 01:07:38;;;;;;;14.90;5.30;;;;;;;5.01;36.86;101087.28;108021;1254;60377;-68
2024/03/11 01:10:14;;;;;;;30.10;8.00;;;;;;;4.90;36.98;101088.49;107934;1254;73904;-67
2024/03/11 01:12:43;;;;;;;22.80;7.40;;;;;;;4.60;37.49;101084.77;107954;1254;69992;-67
2024/03/11 01:15:10;;;;;;;14.20;5.60;;;;;;;4.66;37.45;101083.58;107946;1254;71434;-65
2024/03/11 01:17:39;;;;;;;11.80;4.60;;;;;;;4.61;37.56;101085.83;107910;1256;60528;-60
2024/03/11 01:20:09;;;;;;;15.50;4.60;;;;;;;4.70;37.39;101089.50;108004;1257;60236;-61
2024/03/11 01:22:39;;;;;;;;;;;;;;;4.81;37.32;101088.30;107976;1254;74273;-68
2024/03/11 01:25:09;;;;;;;11.40;4.90;;;;;;;4.71;37.38;101089.85;108024;1254;70312;-66
2024/03/11 01:27:38;;;;;;;10.30;3.70;;;;;;;4.64;37.44;101092.42;107952;1254;72723;-65
2024/03/11 01:30:07;;;;;;;12.40;5.10;;;;;;;4.78;37.39;101095.25;108045;1257;61654;-64
2024/03/11 01:32:39;;;;;;;12.40;5.00;;;;;;;4.84;37.21;101094.23;107933;1255;60300;-66
2024/03/11 01:35:11;;;;;;;9.00;4.50;;;;;;;4.90;37.03;101096.67;107902;1254;73858;-66
2024/03/11 01:37:41;;;;;;;12.50;5.50;;;;;;;4.94;37.07;101095.81;107948;1254;70135;-67
2024/03/11 01:40:11;;;;;;;10.40;4.10;;;;;;;4.94;37.21;101101.04;107923;1254;72231;-68
2024/03/11 01:42:38;;;;;;;11.00;4.60;;;;;;;4.98;37.12;101106.96;107929;1254;60645;-68
2024/03/11 01:45:07;;;;;;;23.50;8.00;;;;;;;4.92;37.38;101110.08;107936;1254;60201;-66
2024/03/11 01:47:37;;;;;;;25.70;8.30;;;;;;;4.86;37.37;101110.59;108003;1254;73876;-66
2024/03/11 01:50:07;;;;;;;9.00;4.40;;;;;;;4.90;37.28;101116.16;107805;1262;69533;-67
2024/03/11 01:52:37;;;;;;;20.30;6.00;;;;;;;5.17;36.71;101117.77;107942;1254;71759;-66
2024/03/11 01:55:05;;;;;;;;;;;;;;;5.12;36.74;101119.33;107783;1254;61713;-65
2024/03/11 01:57:33;;;;;;;7.30;3.80;;;;;;;4.96;37.14;101121.74;107868;1257;60301;-67
2024/03/11 02:00:01;;;;;;;10.30;4.60;;;;;;;4.96;37.06;101125.23;107949;1255;72928;-66
2024/03/11 02:02:30;;;;;;;10.30;5.00;;;;;;;5.00;37.04;101127.84;107962;1256;70323;-67
2024/03/11 02:04:59;;;;;;;9.80;4.60;;;;;;;5.03;36.88;101133.24;107902;1257;72617;-66
2024/03/11 02:07:29;;;;;;;10.20;4.20;;;;;;;4.99;36.92;101133.22;107837;1257;60457;-67
2024/03/11 02:09:56;;;;;;;7.00;4.00;;;;;;;5.05;36.97;101132.20;107948;1257;60287;-67
2024/03/11 02:12:24;;;;;;;8.20;4.20;;;;;;;4.94;37.24;101134.79;107866;1255;73199;-69
2024/03/11 02:14:51;;;;;;;8.90;4.70;;;;;;;4.89;37.45;101141.04;107964;1256;70793;-67
2024/03/11 02:17:19;;;;;;;10.10;5.40;;;;;;;4.96;37.31;101140.36;107888;1257;72804;-67
2024/03/11 02:19:47;;;;;;;10.90;5.50;;;;;;;4.85;37.44;101140.52;107930;1257;59474;-67
2024/03/11 02:22:17;;;;;;;9.20;5.00;;;;;;;4.83;37.41;101138.95;107887;1257;60296;-67
2024/03/11 02:24:45;;;;;;;16.90;6.70;;;;;;;4.72;37.74;101145.17;107815;1255;72545;-68
2024/03/11 02:27:12;;;;;;;23.10;7.50;;;;;;;4.48;38.10;101146.99;107942;1257;68741;-66
2024/03/11 02:29:41;;;;;;;19.40;6.20;;;;;;;4.38;38.29;101150.77;107960;1256;72464;-67
2024/03/11 02:32:08;;;;;;;12.40;5.80;;;;;;;4.42;38.22;101151.50;107852;1256;60502;-67
2024/03/11 02:34:36;;;;;;;10.20;4.60;;;;;;;4.47;38.06;101148.73;107988;1254;60304;-68
2024/03/11 02:37:04;;;;;;;14.60;6.00;;;;;;;4.43;38.17;101149.94;107936;1254;73920;-68
2024/03/11 02:39:33;;;;;;;13.30;5.00;;;;;;;4.33;38.22;101156.15;107959;1254;69938;-67
2024/03/11 02:42:01;;;;;;;8.20;3.80;;;;;;;4.18;38.65;101158.15;107948;1254;71502;-67
2024/03/11 02:44:28;;;;;;;14.10;4.40;;;;;;;4.40;38.42;101160.70;107891;1256;60690;-67
2024/03/11 02:46:56;;;;;;;10.00;4.60;;;;;;;4.54;38.23;101161.13;107887;1254;60201;-65
2024/03/11 02:49:23;;;;;;;11.40;4.30;;;;;;;4.40;38.58;101159.84;107911;1254;73859;-66
2024/03/11 02:51:52;;;;;;;12.20;4.30;;;;;;;4.35;38.44;101160.34;108064;1254;69032;-66
2024/03/11 02:54:19;;;;;;;14.80;5.80;;;;;;;4.28;38.78;101164.46;107936;1256;72525;-67
2024/03/11 02:56:48;;;;;;;11.10;5.00;;;;;;;4.25;38.95;101171.93;107979;1254;62301;-68
2024/03/11 02:59:16;;;;;;;20.50;5.70;;;;;;;4.32;38.87;101169.88;107942;1255;59148;-67
2024/03/11 03:01:44;;;;;;;30.20;9.20;;;;;;;4.43;38.57;101171.15;107841;1256;72388;-66
2024/03/11 03:04:11;;;;;;;14.30;5.80;;;;;;;4.39;38.87;101175.12;107878;1257;69048;-68
2024/03/11 03:06:38;;;;;;;15.70;5.30;;;;;;;4.19;38.99;101174.66;107769;1257;72625;-67
2024/03/11 03:09:06;;;;;;;8.70;4.40;;;;;;;3.86;39.34;101173.77;107840;1257;61866;-66
2024/03/11 03:11:34;;;;;;;9.80;5.10;;;;;;;3.80;39.68;101171.64;107894;1255;60220;-67
2024/03/11 03:14:02;;;;;;;8.90;4.80;;;;;;;4.00;39.44;101172.30;107850;1255;73757;-67
2024/03/11 03:16:29;;;;;;;10.00;3.50;;;;;;;4.14;39.08;101173.77;107836;1257;69050;-66
2024/03/11 03:18:57;;;;;;;6.60;3.60;;;;;;;3.94;39.75;101175.73;107826;1256;72784;-66
2024/03/11 03:21:25;;;;;;;13.50;4.50;;;;;;;4.16;39.68;101178.48;107785;1256;61657;-64
2024/03/11 03:23:52;;;;;;;10.20;5.40;;;;;;;4.06;39.58;101177.73;107821;1256;60391;-66
2024/03/11 03:26:20;;;;;;;15.20;6.20;;;;;;;4.19;39.38;101175.89;107945;1257;73817;-66
2024/03/11 03:28:48;;;;;;;13.80;6.00;;;;;;;4.15;39.46;101176.04;107796;1257;70483;-68
2024/03/11 03:31:15;;;;;;;20.60;8.40;;;;;;;4.08;39.51;101173.04;107901;1257;71425;-66
2024/03/11 03:33:43;;;;;;;18.40;6.20;;;;;;;4.10;39.40;101172.88;107903;1254;61318;-66
2024/03/11 03:36:11;;;;;;;9.50;5.20;;;;;;;3.90;39.76;101175.70;108001;1260;60412;-66
2024/03/11 03:38:39;;;;;;;10.80;4.80;;;;;;;3.72;40.26;101177.48;107989;1254;73861;-66
2024/03/11 03:41:06;;;;;;;10.60;5.20;;;;;;;3.76;40.10;101175.94;107979;1254;69118;-65
2024/03/11 03:43:34;;;;;;;9.10;4.70;;;;;;;3.81;40.07;101177.73;107953;1254;72678;-67
2024/03/11 03:46:03;;;;;;;11.90;6.00;;;;;;;3.77;40.22;101185.51;107986;1257;60414;-68
2024/03/11 03:48:30;;;;;;;10.90;5.30;;;;;;;3.58;40.53;101184.48;108058;1254;60424;-67
2024/03/11 03:50:58;;;;;;;11.30;4.90;;;;;;;3.54;40.58;101188.45;108002;1254;73852;-63
2024/03/11 03:53:25;;;;;;;16.80;5.10;;;;;;;3.48;40.87;101187.34;107972;1254;70252;-68
2024/03/11 03:55:53;;;;;;;15.50;6.70;;;;;;;3.53;40.91;101187.73;107973;1254;71461;-67
2024/03/11 03:58:21;;;;;;;14.20;6.80;;;;;;;3.61;40.77;101188.85;107933;1254;60490;-67
2024/03/11 04:00:48;;;;;;;17.10;7.80;;;;;;;3.56;40.91;101193.85;108085;1254;60400;-67
2024/03/11 04:03:18;;;;;;;15.40;6.30;;;;;;;3.85;40.49;101189.73;107935;1254;72597;-67
2024/03/11 04:05:48;;;;;;;23.00;9.00;;;;;;;3.86;40.48;101185.58;108015;1254;69153;-67
2024/03/11 04:08:16;;;;;;;;;;;;;;;3.94;40.48;101187.55;107959;1257;71840;-68
2024/03/11 04:10:44;;;;;;;20.20;9.30;;;;;;;3.74;40.76;101188.25;107988;1254;60438;-66
2024/03/11 04:13:12;;;;;;;24.60;10.80;;;;;;;3.82;40.73;101191.10;107897;1254;59599;-67
2024/03/11 04:15:40;;;;;;;23.30;10.60;;;;;;;3.90;40.67;101195.33;107963;1254;73554;-67
2024/03/11 04:18:10;;;;;;;26.50;11.50;;;;;;;3.91;40.52;101194.13;107953;1254;69038;-67
2024/03/11 04:20:39;;;;;;;26.20;11.10;;;;;;;3.85;40.70;101193.02;107974;1254;72392;-66
2024/03/11 04:23:12;;;;;;;22.80;10.90;;;;;;;3.88;40.63;101196.19;107928;1254;60511;-65
2024/03/11 04:25:39;;;;;;;28.50;11.30;;;;;;;3.79;40.93;101196.64;108056;1254;60184;-67
2024/03/11 04:28:08;;;;;;;23.40;10.90;;;;;;;3.50;41.51;101203.34;107737;1257;72617;-66
2024/03/11 04:30:37;;;;;;;30.90;12.10;;;;;;;3.42;41.77;101204.65;107831;1260;69000;-67
2024/03/11 04:33:06;;;;;;;31.70;11.10;;;;;;;3.38;41.90;101202.71;107765;1257;72421;-66
2024/03/11 04:35:35;;;;;;;32.30;11.70;;;;;;;3.41;41.87;101212.98;107902;1256;60933;-65
2024/03/11 04:38:08;;;;;;;37.00;12.00;;;;;;;3.57;41.71;101216.60;107882;1259;60314;-66
2024/03/11 04:40:37;;;;;;;44.60;15.90;;;;;;;3.82;41.40;101213.86;107782;1256;73924;-68
2024/03/11 04:43:05;;;;;;;43.00;13.00;;;;;;;3.77;41.33;101213.13;107798;1256;68861;-68
2024/03/11 04:45:33;;;;;;;35.10;10.50;;;;;;;3.85;41.39;101209.55;107776;1260;72440;-67
2024/03/11 04:48:00;;;;;;;43.80;12.50;;;;;;;3.88;41.28;101210.27;107555;1259;61847;-68
2024/03/11 04:50:30;;;;;;;38.80;13.00;;;;;;;3.75;41.52;101211.89;107732;1256;60335;-66
2024/03/11 04:53:05;;;;;;;24.40;9.40;;;;;;;3.61;41.82;101216.46;107739;1256;73251;-67
2024/03/11 04:55:34;;;;;;;18.20;8.20;;;;;;;3.56;42.14;101215.56;107790;1256;69175;-67
2024/03/11 04:58:01;;;;;;;23.50;8.60;;;;;;;3.58;42.26;101216.96;107768;1257;71457;-67
2024/03/11 05:00:30;;;;;;;18.60;8.40;;;;;;;3.59;42.18;101222.35;107822;1257;61640;-67
2024/03/11 05:02:59;;;;;;;18.80;7.50;;;;;;;3.65;42.13;101227.09;107775;1262;59314;-67
2024/03/11 05:05:27;;;;;;;26.60;8.30;;;;;;;3.80;41.91;101228.77;107768;1257;75504;-69
2024/03/11 05:07:55;;;;;;;25.80;8.90;;;;;;;3.84;41.79;101228.82;107801;1257;70144;-66
2024/03/11 05:10:23;;;;;;;19.40;7.80;;;;;;;3.86;41.86;101232.83;107783;1257;72722;-67
2024/03/11 05:12:51;;;;;;;20.40;7.50;;;;;;;3.59;42.37;101238.50;107709;1256;61691;-67
2024/03/11 05:15:19;;;;;;;18.70;7.50;;;;;;;4.00;42.08;101237.63;107817;1256;60307;-67
2024/03/11 05:17:46;;;;;;;17.60;6.60;;;;;;;4.56;41.81;101236.94;107753;1256;72919;-68
2024/03/11 05:20:14;;;;;;;18.70;8.10;;;;;;;5.47;41.14;101233.08;107783;1256;69301;-67
2024/03/11 05:22:43;;;;;;;15.90;6.90;;;;;;;6.12;39.61;101235.02;107739;1262;70839;-67
2024/03/11 05:25:14;;;;;;;16.50;5.60;;;;;;;6.88;37.97;101240.09;107813;1259;60453;-69
2024/03/11 05:27:43;;;;;;;17.10;7.70;;;;;;;7.68;36.68;101235.42;107693;1256;60277;-69
2024/03/11 05:30:11;;;;;;;13.70;6.00;;;;;;;8.56;35.32;101237.81;107677;1256;73558;-68
2024/03/11 05:32:40;;;;;;;15.90;5.40;;;;;;;9.25;34.20;101238.02;107731;1257;70811;-68
2024/03/11 05:35:08;;;;;;;14.10;5.10;;;;;;;9.63;33.22;101238.16;107917;1256;72891;-67
2024/03/11 05:37:36;;;;;;;10.40;5.20;;;;;;;10.16;32.72;101241.85;107834;1256;61100;-68
2024/03/11 05:40:11;;;;;;;15.50;5.70;;;;;;;10.74;32.37;101239.73;107868;1256;60405;-67
2024/03/11 05:42:40;;;;;;;8.90;4.50;;;;;;;11.51;30.50;101245.11;107794;1257;73934;-67
2024/03/11 05:45:10;;;;;;;9.50;5.10;;;;;;;11.62;29.22;101245.73;107830;1257;68741;-67
2024/03/11 05:47:38;;;;;;;10.00;4.50;;;;;;;11.77;28.60;101253.84;107718;1256;71646;-68
2024/03/11 05:50:09;;;;;;;9.70;4.80;;;;;;;11.92;28.38;101252.80;107763;1256;60336;-68
2024/03/11 05:52:37;;;;;;;11.10;4.70;;;;;;;12.44;28.47;101255.35;107832;1256;59927;-68
2024/03/11 05:55:11;;;;;;;8.30;4.60;;;;;;;12.85;27.37;101256.14;107836;1255;73998;-68
2024/03/11 05:57:41;;;;;;;9.70;4.70;;;;;;;13.04;26.50;101258.23;107841;1256;68094;-67
2024/03/11 06:00:09;;;;;;;7.60;4.60;;;;;;;13.03;26.24;101267.10;107819;1257;72544;-68
2024/03/11 06:02:38;;;;;;;13.00;5.20;;;;;;;13.11;26.44;101265.96;107760;1256;165175;-66
2024/03/11 06:07:09;;;;;;;10.70;5.10;;;;;;;11.78;27.79;101278.55;104940;1289;601041;-66
2024/03/11 06:09:36;;;;;;;13.10;5.90;;;;;;;12.87;26.27;101274.05;107282;1264;59241;-67
2024/03/11 06:12:05;;;;;;;12.20;5.50;;;;;;;13.29;26.30;101274.97;107326;1263;60005;-67
2024/03/11 06:14:33;;;;;;;11.10;5.80;;;;;;;12.93;25.97;101276.34;108133;1253;70914;-67
2024/03/11 06:17:04;;;;;;;9.70;5.50;;;;;;;13.10;25.84;101283.99;108187;1253;69293;-67
2024/03/11 06:19:32;;;;;;;10.40;5.30;;;;;;;13.33;25.53;101277.86;108205;1254;72664;-66
2024/03/11 06:22:00;;;;;;;10.40;4.90;;;;;;;13.62;25.12;101280.16;108209;1254;59071;-67
2024/03/11 06:24:28;;;;;;;9.40;5.10;;;;;;;13.75;25.07;101276.40;108347;1251;60560;-66
2024/03/11 06:26:57;;;;;;;6.70;4.30;;;;;;;14.15;24.18;101285.36;108364;1251;72060;-65
2024/03/11 06:29:26;;;;;;;12.50;5.30;;;;;;;13.67;24.51;101284.04;108430;1251;68747;-66
2024/03/11 06:31:55;;;;;;;12.90;4.60;;;;;;;13.62;24.99;101285.46;108371;1252;71847;-67
2024/03/11 06:34:23;;;;;;;8.80;4.40;;;;;;;14.27;24.67;101287.73;108350;1253;59576;-67
2024/03/11 06:36:51;;;;;;;7.50;4.60;;;;;;;14.79;23.76;101287.20;108365;1251;59395;-68
2024/03/11 06:39:18;;;;;;;9.10;4.70;;;;;;;15.05;23.52;101294.92;108336;1251;73086;-68
2024/03/11 06:41:46;;;;;;;8.30;4.90;;;;;;;14.76;23.41;101295.61;108328;1251;70104;-70
2024/03/11 06:44:14;;;;;;;11.10;4.90;;;;;;;14.73;23.52;101294.15;108291;1256;71644;-69
2024/03/11 06:46:47;;;;;;;10.20;4.70;;;;;;;14.89;23.19;101295.50;108356;1254;59587;-68
2024/03/11 06:49:15;;;;;;;9.60;4.70;;;;;;;15.14;23.31;101298.30;108245;1254;59477;-68
2024/03/11 06:51:43;;;;;;;12.60;4.60;;;;;;;15.55;23.20;101298.84;108231;1251;75235;-68
2024/03/11 06:54:11;;;;;;;11.80;4.80;;;;;;;15.75;22.20;101306.80;108230;1254;71445;-68
2024/03/11 06:56:38;;;;;;;11.10;4.60;;;;;;;15.33;22.36;101308.00;108165;1254;71265;-69
2024/03/11 06:59:06;;;;;;;13.10;4.80;;;;;;;15.27;22.69;101306.47;108127;1251;60703;-69
2024/03/11 07:01:33;;;;;;;8.30;4.70;;;;;;;15.32;22.56;101308.09;108157;1253;59468;-66
2024/03/11 07:04:01;;;;;;;8.40;4.70;;;;;;;15.14;22.63;101311.89;108177;1254;72058;-66
2024/03/11 07:06:29;;;;;;;7.80;4.80;;;;;;;15.00;22.73;101309.09;108142;1254;69007;-69
2024/03/11 07:08:56;;;;;;;9.80;4.90;;;;;;;15.50;23.00;101303.66;108244;1257;73628;-66
2024/03/11 07:11:24;;;;;;;19.20;5.70;;;;;;;16.30;22.28;101297.81;108253;1254;60509;-67
2024/03/11 07:13:52;;;;;;;16.80;5.40;;;;;;;16.72;21.12;101292.44;108267;1252;60308;-69
2024/03/11 07:16:19;;;;;;;14.90;5.60;;;;;;;17.02;20.65;101295.21;108258;1253;74974;-69
2024/03/11 07:18:50;;;;;;;11.50;5.60;;;;;;;17.27;20.58;101292.64;108170;1252;72654;-70
2024/03/11 07:21:18;;;;;;;8.40;5.00;;;;;;;17.38;20.12;101296.05;108149;1254;71320;-68
2024/03/11 07:23:48;;;;;;;11.10;4.90;;;;;;;16.70;20.69;101300.17;108118;1257;60346;-68
2024/03/11 07:26:16;;;;;;;12.90;5.40;;;;;;;16.16;20.98;101297.14;108154;1254;59725;-68
2024/03/11 07:28:44;;;;;;;9.50;5.60;;;;;;;16.13;20.84;101303.14;108156;1253;72940;-68
2024/03/11 07:31:12;;;;;;;10.20;5.40;;;;;;;16.33;20.71;101299.98;108154;1254;69358;-68
2024/03/11 07:33:40;;;;;;;10.90;5.70;;;;;;;16.54;20.40;101300.66;108184;1254;71447;-67
2024/03/11 07:36:08;;;;;;;9.80;6.00;;;;;;;16.75;20.44;101302.23;108120;1254;59655;-67
2024/03/11 07:38:36;;;;;;;12.60;6.10;;;;;;;17.04;20.08;101302.60;108125;1257;60264;-67
2024/03/11 07:41:06;;;;;;;10.10;6.20;;;;;;;17.24;19.92;101304.51;108132;1254;72817;-66
2024/03/11 07:43:34;;;;;;;8.60;4.50;;;;;;;17.20;19.73;101310.34;108178;1254;70691;-69
2024/03/11 07:46:03;;;;;;;12.20;5.80;;;;;;;16.62;19.88;101315.94;108164;1254;74465;-68
2024/03/11 07:48:32;;;;;;;8.40;5.90;;;;;;;16.40;20.07;101317.03;108061;1254;59548;-68
2024/03/11 07:51:00;;;;;;;7.90;4.70;;;;;;;16.34;20.21;101317.82;108128;1254;62202;-68
2024/03/11 07:53:28;;;;;;;7.30;4.70;;;;;;;16.25;19.93;101317.50;108202;1254;72192;-70
2024/03/11 07:55:56;;;;;;;7.60;4.40;;;;;;;15.74;20.10;101318.30;108150;1254;71638;-67
2024/03/11 07:58:23;;;;;;;6.70;4.40;;;;;;;15.42;20.32;101320.44;108095;1254;71526;-67
2024/03/11 08:00:51;;;;;;;10.40;4.40;;;;;;;15.47;20.37;101324.30;108092;1254;59454;-67
2024/03/11 08:03:19;;;;;;;12.20;4.90;;;;;;;15.39;20.37;101310.98;108181;1254;60392;-69
2024/03/11 08:05:47;;;;;;;8.80;4.70;;;;;;;15.62;20.36;101316.45;108162;1254;73145;-68
2024/03/11 08:08:17;;;;;;;10.00;5.00;;;;;;;15.89;20.19;101317.71;108089;1252;72782;-69
2024/03/11 08:10:50;;;;;;;9.40;4.40;;;;;;;15.84;20.02;101329.60;108131;1253;74890;-66
2024/03/11 08:13:18;;;;;;;6.20;3.40;;;;;;;15.33;19.64;101326.25;108085;1252;62274;-67
2024/03/11 08:15:46;;;;;;;6.60;4.10;;;;;;;15.33;19.77;101331.02;108117;1253;59067;-67
2024/03/11 08:18:14;;;;;;;6.70;4.40;;;;;;;15.48;20.04;101328.73;108180;1253;75270;-69
2024/03/11 08:20:42;;;;;;;7.70;4.70;;;;;;;15.63;19.99;101330.95;108048;1253;69481;-67
2024/03/11 08:23:10;;;;;;;11.60;6.30;;;;;;;15.70;19.92;101323.24;108118;1253;74578;-67
2024/03/11 08:25:44;;;;;;;13.50;5.30;;;;;;;16.19;19.51;101320.77;108087;1256;60494;-68
2024/03/11 08:28:14;;;;;;;8.60;4.20;;;;;;;17.17;18.81;101315.31;108110;1255;60115;-68
2024/03/11 08:30:46;;;;;;;38.40;18.60;;;;;;;17.58;18.39;101313.38;108152;1254;75271;-68
2024/03/11 08:33:15;;;;;;;5.60;3.50;;;;;;;17.95;18.21;101314.69;108086;1254;69297;-68
2024/03/11 08:35:44;;;;;;;7.80;4.60;;;;;;;17.92;18.07;101311.44;108128;1253;74942;-69
2024/03/11 08:38:13;;;;;;;10.10;4.50;;;;;;;17.83;18.07;101312.56;108143;1254;60170;-67
2024/03/11 08:40:41;;;;;;;8.10;4.10;;;;;;;17.89;17.86;101314.42;108166;1253;62052;-68
2024/03/11 08:43:09;;;;;;;10.20;4.30;;;;;;;17.50;17.93;101313.41;108133;1253;71404;-69
2024/03/11 08:45:41;;;;;;;8.60;4.00;;;;;;;17.94;17.97;101306.02;108142;1254;71545;-68
2024/03/11 08:48:10;;;;;;;8.00;3.80;;;;;;;18.57;17.53;101306.21;108183;1257;71955;-67
2024/03/11 08:50:38;;;;;;;7.70;4.00;;;;;;;18.77;17.18;101306.98;108200;1254;59782;-67
2024/03/11 08:53:08;;;;;;;6.60;4.50;;;;;;;18.55;17.17;101302.59;108158;1251;60424;-66
2024/03/11 08:55:36;;;;;;;16.80;5.90;;;;;;;17.88;17.50;101298.30;108112;1254;75299;-68
2024/03/11 08:58:07;;;;;;;14.90;5.70;;;;;;;17.65;17.38;101300.10;108149;1253;69580;-67
2024/03/11 09:00:36;;;;;;;10.00;4.00;;;;;;;17.79;17.46;101294.30;108073;1254;71494;-68
2024/03/11 09:03:04;;;;;;;8.70;4.60;;;;;;;17.90;17.48;101297.30;108065;1254;59759;-70
2024/03/11 09:05:32;;;;;;;9.70;4.20;;;;;;;17.63;17.11;101309.92;108110;1252;59372;-66
2024/03/11 09:08:03;;;;;;;9.00;4.50;;;;;;;16.85;17.94;101307.27;108176;1254;75351;-68
2024/03/11 09:10:30;;;;;;;;;;;;;;;16.51;18.44;101304.68;108202;1253;72527;-67
2024/03/11 09:13:02;;;;;;;13.60;5.10;;;;;;;16.75;18.38;101302.98;108080;1257;74162;-68
2024/03/11 09:15:30;;;;;;;10.20;4.80;;;;;;;16.96;18.14;101310.92;108102;1254;61011;-68
2024/03/11 09:17:59;;;;;;;12.90;5.50;;;;;;;17.32;17.84;101308.53;108048;1253;60326;-67
2024/03/11 09:20:27;;;;;;;6.90;4.40;;;;;;;17.30;17.74;101312.04;108105;1253;75280;-66
2024/03/11 09:22:58;;;;;;;8.30;4.30;;;;;;;17.55;17.50;101308.72;108136;1253;72105;-65
2024/03/11 09:25:26;;;;;;;;;;;;;;;17.71;17.32;101308.13;108146;1253;74939;-69
2024/03/11 09:28:00;;;;;;;8.50;4.30;;;;;;;17.58;17.62;101312.51;108088;1254;60341;-67
2024/03/11 09:30:32;;;;;;;8.10;4.50;;;;;;;17.83;17.74;101310.78;108180;1253;62047;-69
2024/03/11 09:33:01;;;;;;;6.90;4.50;;;;;;;18.06;17.24;101306.65;108147;1254;72884;-67
2024/03/11 09:35:28;;;;;;;7.10;4.40;;;;;;;17.99;17.17;101305.74;108099;1255;69110;-68
2024/03/11 09:37:57;;;;;;;11.00;4.70;;;;;;;18.30;17.01;101304.92;108076;1254;74895;-66
2024/03/11 09:40:26;;;;;;;10.10;4.60;;;;;;;18.45;16.48;101315.36;108136;1254;62360;-70
2024/03/11 09:42:56;;;;;;;;;;;;;;;18.06;16.51;101305.22;108123;1254;59512;-68
2024/03/11 09:45:27;;;;;;;6.60;3.90;;;;;;;17.35;16.86;101306.66;108103;1253;75749;-69
2024/03/11 09:47:57;;;;;;;10.50;4.10;;;;;;;16.45;17.76;101307.47;108090;1254;72448;-67
2024/03/11 09:50:32;;;;;;;10.20;4.30;;;;;;;16.53;17.81;101311.36;108125;1254;71221;-66
2024/03/11 09:53:04;;;;;;;12.10;4.30;;;;;;;16.45;17.92;101305.65;108142;1256;59701;-66
2024/03/11 09:55:33;;;;;;;11.30;4.20;;;;;;;16.15;18.35;101306.92;108117;1254;62257;-69
2024/03/11 09:58:02;;;;;;;6.00;3.80;;;;;;;16.29;18.14;101303.14;108146;1253;72302;-68
2024/03/11 10:00:32;;;;;;;8.30;4.40;;;;;;;16.38;18.02;101301.73;108159;1254;69983;-68
2024/03/11 10:03:05;;;;;;;10.00;4.20;;;;;;;16.55;18.23;101297.42;108043;1254;72825;-67
2024/03/11 10:05:34;;;;;;;13.50;4.80;;;;;;;16.62;18.02;101299.96;108131;1254;62434;-69
2024/03/11 10:08:04;;;;;;;8.30;4.20;;;;;;;16.36;18.01;101303.17;108121;1254;61897;-68
2024/03/11 10:10:34;;;;;;;14.00;5.20;;;;;;;15.30;18.97;101304.25;108106;1253;75230;-68
2024/03/11 10:13:04;;;;;;;10.10;4.60;;;;;;;15.50;19.30;101303.13;108155;1254;71978;-68
2024/03/11 10:15:33;;;;;;;9.70;4.60;;;;;;;16.23;18.84;101295.78;108107;1254;72484;-69
2024/03/11 10:18:25;;;;;;;8.50;4.70;;;;;;;16.64;18.43;101294.05;108126;1254;60354;-69
2024/03/11 10:20:59;;;;;;;9.80;4.90;;;;;;;16.48;18.36;101289.76;108128;1258;61609;-69
2024/03/11 10:23:27;;;;;;;7.60;4.30;;;;;;;16.50;18.45;101284.68;108068;1253;72485;-68
2024/03/11 10:26:24;;;;;;;9.40;4.80;;;;;;;16.06;18.61;101282.85;108046;1252;72634;-68
2024/03/11 10:28:56;;;;;;;7.10;4.50;;;;;;;16.39;18.36;101290.31;108134;1254;72997;-68
2024/03/11 10:31:27;;;;;;;8.00;5.10;;;;;;;16.48;18.26;101282.66;108045;1254;60345;-70
2024/03/11 10:34:21;;;;;;;8.20;4.50;;;;;;;16.54;18.12;101282.04;108100;1254;60293;-68
2024/03/11 10:36:57;;;;;;;11.50;5.20;;;;;;;16.74;18.38;101269.88;108122;1253;73971;-69
2024/03/11 10:39:37;;;;;;;9.00;5.00;;;;;;;16.94;17.98;101267.88;108203;1253;70339;-69
2024/03/11 10:42:12;;;;;;;9.80;5.40;;;;;;;17.26;17.76;101265.17;108142;1253;74851;-69
2024/03/11 10:44:40;;;;;;;7.70;4.60;;;;;;;16.38;18.14;101263.54;108118;1259;61452;-68
2024/03/11 10:47:14;;;;;;;8.00;4.50;;;;;;;15.46;19.01;101259.57;108223;1256;62208;-67
2024/03/11 10:49:48;;;;;;;6.90;4.00;;;;;;;15.77;18.92;101253.21;108208;1251;75076;-69
2024/03/11 10:52:20;;;;;;;9.70;4.90;;;;;;;15.94;18.91;101252.55;108223;1251;72978;-68
2024/03/11 10:54:50;;;;;;;17.90;6.10;;;;;;;16.06;18.13;101256.83;108270;1251;74905;-68
2024/03/11 10:57:39;;;;;;;12.70;5.90;;;;;;;16.50;17.71;101251.54;108202;1251;60249;-68
2024/03/11 11:00:28;;;;;;;43.30;10.20;;;;;;;16.63;17.88;101246.20;108223;1251;60003;-69
2024/03/11 11:03:12;;;;;;;10.70;5.10;;;;;;;16.78;17.94;101252.63;108214;1251;76054;-69
2024/03/11 11:05:52;;;;;;;9.50;5.00;;;;;;;16.82;17.83;101260.11;108208;1251;70106;-69
2024/03/11 11:08:22;;;;;;;8.10;5.10;;;;;;;16.47;17.99;101251.15;108220;1256;74839;-69
2024/03/11 11:10:51;;;;;;;6.90;4.00;;;;;;;16.03;18.56;101245.94;108210;1251;60614;-67
2024/03/11 11:13:23;;;;;;;9.10;5.20;;;;;;;16.05;18.69;101246.41;108223;1251;60474;-69
2024/03/11 11:15:54;;;;;;;11.20;5.10;;;;;;;16.06;18.59;101244.07;108237;1251;76158;-69
2024/03/11 11:18:24;;;;;;;7.00;4.40;;;;;;;15.83;18.72;101253.16;108051;1251;71257;-69
2024/03/11 11:20:52;;;;;;;9.40;4.70;;;;;;;15.68;18.68;101239.23;108312;1251;74790;-69
2024/03/11 11:23:34;;;;;;;10.10;4.40;;;;;;;15.29;19.12;101242.16;108272;1257;60548;-68
2024/03/11 11:26:03;;;;;;;11.90;5.90;;;;;;;15.26;19.37;101230.61;108179;1251;62306;-69
2024/03/11 11:28:37;;;;;;;10.30;4.80;;;;;;;15.32;19.59;101231.44;108208;1251;74267;-69